createdAt,value
2018-09-13T00:03:47.653Z,18.87
2018-09-13T00:08:42.489Z,13.80
2018-09-13T00:13:37.081Z,11.90
2018-09-13T00:18:31.685Z,15.50
2018-09-13T00:23:26.286Z,14.00
2018-09-13T00:28:20.806Z,12.30
2018-09-13T00:33:15.373Z,13.27
2018-09-13T00:38:09.950Z,12.13
2018-09-13T00:43:04.513Z,11.50
2018-09-13T00:47:59.061Z,10.33
2018-09-13T00:52:53.639Z,9.00
2018-09-13T00:57:48.213Z,8.83
2018-09-13T01:02:42.724Z,9.87
2018-09-13T01:07:37.304Z,8.80
2018-09-13T01:12:31.904Z,7.63
2018-09-13T01:17:26.513Z,9.30
2018-09-13T01:22:21.044Z,10.87
2018-09-13T01:27:15.597Z,9.87
2018-09-13T01:32:10.116Z,9.23
2018-09-13T01:37:04.605Z,10.97
2018-09-13T01:41:59.100Z,11.80
2018-09-13T01:46:53.620Z,11.80
2018-09-13T01:51:48.154Z,11.87
2018-09-13T01:56:42.666Z,10.87
2018-09-13T02:01:37.172Z,12.43
2018-09-13T02:06:31.778Z,9.40
2018-09-13T02:11:26.530Z,10.50
2018-09-13T02:16:21.105Z,9.93
2018-09-13T02:21:15.667Z,9.40
2018-09-13T02:26:10.227Z,8.87
2018-09-13T02:31:04.785Z,10.07
2018-09-13T02:35:59.361Z,8.97
2018-09-13T02:40:53.904Z,9.43
2018-09-13T02:45:48.521Z,9.17
2018-09-13T02:50:43.069Z,10.13
2018-09-13T02:55:37.716Z,7.70
2018-09-13T03:00:32.254Z,10.30
2018-09-13T03:05:26.824Z,11.60
2018-09-13T03:10:21.442Z,11.03
2018-09-13T03:15:15.973Z,9.40
2018-09-13T03:20:10.701Z,13.03
2018-09-13T03:25:05.928Z,8.87
2018-09-13T03:30:00.488Z,12.83
2018-09-13T03:34:55.069Z,10.80
2018-09-13T03:39:49.625Z,9.13
2018-09-13T03:44:44.162Z,11.90
2018-09-13T03:49:38.700Z,9.43
2018-09-13T03:54:33.269Z,10.80
2018-09-13T03:59:27.844Z,11.47
2018-09-13T04:04:22.530Z,12.70
2018-09-13T04:09:17.136Z,10.07
2018-09-13T04:14:11.734Z,12.53
2018-09-13T04:19:06.389Z,12.47
2018-09-13T04:24:01.513Z,13.90
2018-09-13T04:28:56.089Z,12.50
2018-09-13T04:33:50.721Z,15.97
2018-09-13T04:38:45.313Z,11.83
2018-09-13T04:43:39.892Z,11.83
2018-09-13T04:48:34.527Z,14.10
2018-09-13T04:53:29.108Z,15.27
2018-09-13T04:58:23.865Z,17.90
2018-09-13T05:03:18.635Z,14.93
2018-09-13T05:08:13.285Z,14.07
2018-09-13T05:13:08.309Z,13.27
2018-09-13T05:18:04.415Z,16.30
2018-09-13T05:22:59.091Z,16.03
2018-09-13T05:27:53.805Z,14.70
2018-09-13T05:32:48.353Z,12.97
2018-09-13T05:37:43.717Z,14.33
2018-09-13T05:42:38.488Z,11.63
2018-09-13T05:47:33.499Z,12.33
2018-09-13T05:52:28.076Z,12.53
2018-09-13T05:57:22.924Z,15.07
2018-09-13T06:02:17.861Z,13.03
2018-09-13T06:07:12.869Z,9.68
2018-09-13T06:12:15.525Z,11.28
2018-09-13T06:17:11.645Z,13.18
2018-09-13T06:22:12.967Z,9.98
2018-09-13T06:27:07.700Z,11.50
2018-09-13T06:32:02.356Z,11.20
2018-09-13T06:36:56.906Z,13.88
2018-09-13T06:41:51.516Z,11.60
2018-09-13T06:46:46.428Z,11.80
2018-09-13T06:51:41.253Z,9.65
2018-09-13T06:56:36.070Z,10.13
2018-09-13T07:01:30.532Z,14.40
2018-09-13T07:06:26.200Z,13.47
2018-09-13T07:11:23.488Z,9.57
2018-09-13T07:16:32.483Z,14.80
2018-09-13T07:21:27.124Z,11.48
2018-09-13T07:26:21.647Z,11.20
2018-09-13T07:31:16.453Z,11.18
2018-09-13T07:36:11.212Z,13.05
2018-09-13T07:41:05.725Z,10.20
2018-09-13T07:46:00.574Z,9.33
2018-09-13T07:51:01.608Z,8.90
2018-09-13T07:55:59.849Z,12.30
2018-09-13T08:01:03.786Z,15.23
2018-09-13T08:06:01.450Z,12.05
2018-09-13T08:10:56.152Z,13.60
2018-09-13T08:15:51.506Z,13.38
2018-09-13T08:20:46.506Z,11.97
2018-09-13T08:25:42.580Z,9.60
2018-09-13T08:30:37.193Z,12.63
2018-09-13T08:35:34.216Z,12.30
2018-09-13T08:40:30.288Z,12.13
2018-09-13T08:45:26.508Z,9.30
2018-09-13T08:50:25.652Z,9.65
2018-09-13T08:55:20.511Z,9.33
2018-09-13T09:00:18.728Z,9.65
2018-09-13T09:05:13.475Z,8.00
2018-09-13T09:10:08.328Z,9.68
2018-09-13T09:15:03.126Z,7.65
2018-09-13T09:19:59.023Z,11.93
2018-09-13T09:24:55.246Z,7.03
2018-09-13T09:29:50.177Z,10.58
2018-09-13T09:34:44.956Z,7.20
2018-09-13T09:39:39.677Z,9.60
2018-09-13T09:44:35.870Z,7.28
2018-09-13T09:49:30.585Z,10.45
2018-09-13T09:54:25.521Z,9.43
2018-09-13T09:59:30.040Z,7.30
2018-09-13T10:04:24.910Z,7.97
2018-09-13T10:09:19.528Z,9.70
2018-09-13T10:14:15.360Z,12.28
2018-09-13T10:19:15.142Z,11.08
2018-09-13T10:24:15.884Z,8.33
2018-09-13T10:29:15.740Z,11.50
2018-09-13T10:34:15.597Z,10.13
2018-09-13T10:39:16.387Z,9.83
2018-09-13T10:44:18.018Z,11.50
2018-09-13T10:49:18.008Z,11.70
2018-09-13T10:54:28.997Z,7.90
2018-09-13T10:59:41.100Z,10.38
2018-09-13T11:04:46.621Z,9.60
2018-09-13T11:09:41.592Z,12.63
2018-09-13T11:14:55.795Z,11.55
2018-09-13T11:20:00.779Z,9.78
2018-09-13T11:24:56.488Z,10.35
2018-09-13T11:30:02.698Z,10.03
2018-09-13T11:35:12.184Z,11.95
2018-09-13T11:40:22.013Z,9.60
2018-09-13T11:45:17.691Z,9.33
2018-09-13T11:50:12.791Z,10.32
2018-09-13T11:55:07.705Z,7.05
2018-09-13T12:00:02.357Z,10.88
2018-09-13T12:04:57.170Z,12.50
2018-09-13T12:09:51.698Z,8.78
2018-09-13T12:14:51.743Z,11.83
2018-09-13T12:19:46.640Z,9.15
2018-09-13T12:24:42.929Z,9.15
2018-09-13T12:29:37.520Z,9.10
2018-09-13T12:34:32.269Z,11.50
2018-09-13T12:39:26.773Z,9.80
2018-09-13T12:44:22.938Z,13.93
2018-09-13T12:49:17.521Z,8.90
2018-09-13T12:54:12.268Z,8.15
2018-09-13T12:59:07.440Z,12.18
2018-09-13T13:04:01.997Z,12.63
2018-09-13T13:08:56.607Z,12.25
2018-09-13T13:13:51.108Z,8.13
2018-09-13T13:18:45.742Z,10.85
2018-09-13T13:23:40.345Z,10.43
2018-09-13T13:28:34.840Z,8.88
2018-09-13T13:33:40.681Z,10.00
2018-09-13T13:38:37.233Z,6.58
2018-09-13T13:43:53.341Z,5.62
2018-09-13T13:49:10.374Z,5.75
2018-09-13T13:54:05.777Z,3.17
2018-09-13T13:59:00.913Z,5.50
2018-09-13T14:03:56.059Z,6.75
2018-09-13T14:08:50.763Z,6.47
2018-09-13T14:13:45.429Z,7.67
2018-09-13T14:18:40.236Z,5.22
2018-09-13T14:23:35.850Z,7.65
2018-09-13T14:28:30.766Z,5.95
2018-09-13T14:33:27.561Z,6.83
2018-09-13T14:38:22.330Z,6.05
2018-09-13T14:43:17.154Z,6.30
2018-09-13T14:48:11.820Z,4.90
2018-09-13T14:53:06.709Z,7.72
2018-09-13T14:58:02.678Z,7.20
2018-09-13T15:02:57.643Z,5.78
2018-09-13T15:07:52.331Z,7.17
2018-09-13T15:12:47.996Z,5.25
2018-09-13T15:17:42.577Z,6.67
2018-09-13T15:22:37.798Z,6.87
2018-09-13T15:27:32.418Z,6.60
2018-09-13T15:33:01.551Z,7.72
2018-09-13T15:37:56.747Z,5.85
2018-09-13T15:42:51.566Z,5.72
2018-09-13T15:47:46.423Z,8.15
2018-09-13T15:52:41.189Z,7.62
2018-09-13T15:57:35.838Z,5.78
2018-09-13T16:02:30.567Z,5.92
2018-09-13T16:07:25.838Z,7.53
2018-09-13T16:12:20.519Z,7.80
2018-09-13T16:17:16.032Z,6.83
2018-09-13T16:22:11.189Z,6.35
2018-09-13T16:27:05.929Z,5.83
2018-09-13T16:32:02.045Z,6.15
2018-09-13T16:37:05.101Z,7.07
2018-09-13T16:42:04.740Z,7.25
2018-09-13T16:47:08.263Z,6.70
2018-09-13T16:52:02.944Z,10.93
2018-09-13T16:56:58.237Z,5.78
2018-09-13T17:01:52.893Z,7.10
2018-09-13T17:06:48.130Z,5.30
2018-09-13T17:11:42.657Z,6.50
2018-09-13T17:16:38.246Z,7.55
2018-09-13T17:21:32.839Z,7.22
2018-09-13T17:26:27.502Z,7.00
2018-09-13T17:31:22.413Z,7.07
2018-09-13T17:36:17.120Z,6.47
2018-09-13T17:41:11.660Z,7.70
2018-09-13T17:46:06.317Z,5.23
2018-09-13T17:51:00.845Z,6.17
2018-09-13T17:55:55.458Z,5.73
2018-09-13T18:00:50.030Z,8.80
2018-09-13T18:05:44.735Z,8.87
2018-09-13T18:10:39.314Z,7.80
2018-09-13T18:15:33.997Z,7.07
2018-09-13T18:20:28.540Z,11.93
2018-09-13T18:25:23.125Z,11.53
2018-09-13T18:30:17.705Z,8.07
2018-09-13T18:35:12.293Z,10.50
2018-09-13T18:40:06.956Z,9.80
2018-09-13T18:45:01.661Z,11.00
2018-09-13T18:49:56.821Z,10.70
2018-09-13T18:54:51.433Z,11.43
2018-09-13T18:59:46.207Z,8.60
2018-09-13T19:04:40.763Z,11.73
2018-09-13T19:09:35.319Z,7.90
2018-09-13T19:14:29.896Z,10.77
2018-09-13T19:19:24.449Z,10.83
2018-09-13T19:24:19.086Z,11.00
2018-09-13T19:29:13.574Z,10.07
2018-09-13T19:34:08.116Z,7.67
2018-09-13T19:39:02.653Z,9.90
2018-09-13T19:43:57.248Z,6.23
2018-09-13T19:48:51.789Z,7.40
2018-09-13T19:53:46.434Z,8.37
2018-09-13T19:58:41.021Z,8.67
2018-09-13T20:03:35.581Z,8.70
2018-09-13T20:08:30.117Z,9.90
2018-09-13T20:13:24.709Z,10.27
2018-09-13T20:18:19.303Z,11.00
2018-09-13T20:23:13.878Z,11.90
2018-09-13T20:28:08.317Z,10.37
2018-09-13T20:33:03.008Z,11.43
2018-09-13T20:37:57.579Z,12.13
2018-09-13T20:42:52.223Z,12.10
2018-09-13T20:47:46.849Z,11.70
2018-09-13T20:52:41.471Z,8.43
2018-09-13T20:57:36.101Z,7.43
2018-09-13T21:02:30.692Z,8.13
2018-09-13T21:07:25.317Z,7.93
2018-09-13T21:12:19.945Z,7.87
2018-09-13T21:17:14.533Z,8.20
2018-09-13T21:22:10.500Z,8.70
2018-09-13T21:27:05.245Z,8.50
2018-09-13T21:31:59.869Z,7.67
2018-09-13T21:36:54.496Z,7.50
2018-09-13T21:41:49.049Z,9.00
2018-09-13T21:46:43.611Z,7.97
2018-09-13T21:51:38.208Z,7.70
2018-09-13T21:56:32.961Z,8.50
2018-09-13T22:01:27.493Z,6.87
2018-09-13T22:06:22.038Z,7.23
2018-09-13T22:11:16.660Z,7.37
2018-09-13T22:16:11.111Z,7.53
2018-09-13T22:21:05.707Z,8.87
2018-09-13T22:26:00.295Z,7.77
2018-09-13T22:30:54.825Z,8.13
2018-09-13T22:35:49.421Z,10.40
2018-09-13T22:40:44.097Z,11.93
2018-09-13T22:45:38.569Z,9.73
2018-09-13T22:50:33.085Z,8.27
2018-09-13T22:55:27.568Z,8.47
2018-09-13T23:00:22.108Z,8.30
2018-09-13T23:05:17.486Z,9.80
2018-09-13T23:10:11.961Z,10.57
2018-09-13T23:15:06.584Z,9.60
2018-09-13T23:20:01.181Z,8.70
2018-09-13T23:24:55.746Z,10.33
2018-09-13T23:29:50.284Z,12.13
2018-09-13T23:34:44.832Z,12.37
2018-09-13T23:39:39.660Z,11.53
2018-09-13T23:44:33.846Z,9.47
2018-09-13T23:49:28.349Z,10.53
2018-09-13T23:54:22.836Z,10.30
2018-09-13T23:59:17.353Z,8.40
